createdAt,value
2022-10-18T00:00:13.146Z,0.00
2022-10-18T00:01:13.254Z,0.00
2022-10-18T00:02:13.444Z,0.00
2022-10-18T00:03:13.492Z,0.00
2022-10-18T00:04:13.461Z,0.00
2022-10-18T00:05:13.485Z,0.00
2022-10-18T00:06:13.484Z,0.24
2022-10-18T00:07:13.382Z,0.56
2022-10-18T00:08:13.378Z,0.48
2022-10-18T00:09:13.258Z,0.96
2022-10-18T00:10:13.468Z,1.24
2022-10-18T00:11:13.434Z,1.44
2022-10-18T00:12:13.383Z,0.72
2022-10-18T00:13:13.646Z,0.56
2022-10-18T00:14:13.764Z,0.52
2022-10-18T00:15:13.972Z,0.56
2022-10-18T00:16:12.934Z,0.32
2022-10-18T00:17:12.903Z,0.92
2022-10-18T00:18:13.223Z,0.48
2022-10-18T00:19:13.377Z,0.56
2022-10-18T00:20:18.391Z,1.16
2022-10-18T00:21:13.597Z,0.00
2022-10-18T00:22:13.521Z,0.24
2022-10-18T00:23:14.276Z,0.12
2022-10-18T00:24:13.408Z,0.00
2022-10-18T00:25:13.540Z,0.00
2022-10-18T00:26:13.441Z,0.00
2022-10-18T00:27:13.779Z,0.00
2022-10-18T00:28:13.771Z,0.00
2022-10-18T00:29:13.835Z,0.00
2022-10-18T00:30:13.904Z,0.16
2022-10-18T00:31:13.015Z,0.00
2022-10-18T00:32:13.139Z,0.00
2022-10-18T00:33:13.637Z,0.00
2022-10-18T00:34:13.787Z,0.00
2022-10-18T00:35:13.933Z,0.00
2022-10-18T00:36:12.902Z,0.00
2022-10-18T00:37:12.963Z,0.84
2022-10-18T00:38:12.917Z,0.12
2022-10-18T00:39:12.925Z,0.00
2022-10-18T00:40:13.232Z,0.32
2022-10-18T00:41:13.238Z,0.00
2022-10-18T00:42:13.572Z,0.00
2022-10-18T00:43:14.211Z,0.00
2022-10-18T00:44:13.280Z,0.00
2022-10-18T00:45:13.382Z,0.00
2022-10-18T00:46:13.456Z,0.00
2022-10-18T00:47:13.491Z,0.00
2022-10-18T00:48:13.960Z,0.00
2022-10-18T00:49:13.261Z,0.00
2022-10-18T00:50:13.287Z,0.00
2022-10-18T00:51:13.170Z,0.00
2022-10-18T00:52:18.838Z,0.00
2022-10-18T00:53:14.045Z,0.04
2022-10-18T00:54:12.886Z,0.00
2022-10-18T00:55:12.828Z,0.00
2022-10-18T00:56:14.089Z,0.00
2022-10-18T00:57:13.256Z,0.00
2022-10-18T00:58:13.425Z,0.00
2022-10-18T00:59:13.591Z,0.00
2022-10-18T01:00:13.434Z,0.00
2022-10-18T01:01:13.852Z,0.00
2022-10-18T01:02:13.909Z,0.00
2022-10-18T01:03:12.863Z,0.00
2022-10-18T01:04:14.149Z,0.00
2022-10-18T01:05:13.557Z,0.00
2022-10-18T01:06:13.688Z,0.00
2022-10-18T01:07:13.635Z,0.00
2022-10-18T01:08:13.544Z,0.00
2022-10-18T01:09:13.381Z,0.00
2022-10-18T01:10:13.273Z,0.00
2022-10-18T01:11:13.193Z,0.00
2022-10-18T01:12:13.471Z,0.00
2022-10-18T01:13:13.812Z,0.00
2022-10-18T01:14:14.093Z,0.00
2022-10-18T01:15:13.157Z,0.00
2022-10-18T01:16:13.207Z,0.00
2022-10-18T01:17:13.368Z,0.00
2022-10-18T01:18:13.272Z,0.00
2022-10-18T01:19:18.256Z,0.00
2022-10-18T01:20:13.171Z,0.00
2022-10-18T01:21:16.370Z,0.00
2022-10-18T01:22:13.714Z,0.00
2022-10-18T01:23:13.677Z,0.00
2022-10-18T01:24:15.239Z,0.00
2022-10-18T01:25:14.790Z,0.00
2022-10-18T01:26:13.983Z,0.00
2022-10-18T01:27:18.171Z,0.00
2022-10-18T01:28:13.096Z,0.00
2022-10-18T01:29:13.209Z,0.00
2022-10-18T01:30:13.070Z,0.00
2022-10-18T01:31:13.022Z,0.00
2022-10-18T01:32:12.964Z,0.00
2022-10-18T01:33:12.997Z,0.00
2022-10-18T01:34:12.952Z,0.00
2022-10-18T01:35:13.034Z,0.00
2022-10-18T01:36:13.112Z,0.00
2022-10-18T01:37:13.325Z,0.00
2022-10-18T01:38:13.370Z,0.00
2022-10-18T01:39:18.270Z,0.00
2022-10-18T01:40:13.240Z,0.00
2022-10-18T01:41:15.719Z,0.00
2022-10-18T01:42:13.372Z,0.00
2022-10-18T01:43:13.548Z,0.00
2022-10-18T01:44:13.463Z,0.00
2022-10-18T01:45:13.680Z,0.00
2022-10-18T01:46:13.707Z,0.00
2022-10-18T01:47:13.718Z,0.00
2022-10-18T01:48:13.636Z,0.00
2022-10-18T01:49:13.743Z,0.00
2022-10-18T01:50:13.927Z,0.00
2022-10-18T01:51:13.242Z,0.00
2022-10-18T01:52:13.105Z,0.00
2022-10-18T01:53:12.964Z,0.00
2022-10-18T01:54:12.761Z,0.00
2022-10-18T01:55:13.707Z,0.00
2022-10-18T01:56:13.703Z,0.00
2022-10-18T01:57:13.818Z,0.00
2022-10-18T01:58:14.116Z,0.00
2022-10-18T01:59:13.081Z,0.00
2022-10-18T02:00:12.951Z,0.00
2022-10-18T02:01:13.357Z,0.00
2022-10-18T02:02:13.528Z,0.00
2022-10-18T02:03:13.424Z,0.00
2022-10-18T02:04:13.434Z,0.00
2022-10-18T02:05:18.664Z,0.00
2022-10-18T02:06:13.612Z,0.00
2022-10-18T02:07:13.588Z,0.00
2022-10-18T02:08:22.729Z,0.00
2022-10-18T02:09:13.846Z,0.00
2022-10-18T02:11:13.293Z,0.00
2022-10-18T02:12:13.210Z,0.00
2022-10-18T02:13:13.303Z,0.00
2022-10-18T02:14:13.466Z,0.00
2022-10-18T02:15:13.463Z,0.00
2022-10-18T02:16:13.489Z,0.00
2022-10-18T02:17:13.388Z,0.00
2022-10-18T02:18:13.276Z,0.00
2022-10-18T02:19:13.331Z,0.00
2022-10-18T02:20:13.736Z,0.00
2022-10-18T02:21:13.873Z,0.00
2022-10-18T02:22:14.121Z,0.00
2022-10-18T02:23:12.935Z,0.00
2022-10-18T02:24:13.561Z,0.00
2022-10-18T02:25:13.737Z,0.00
2022-10-18T02:26:13.530Z,0.00
2022-10-18T02:27:13.728Z,0.00
2022-10-18T02:28:13.890Z,0.00
2022-10-18T02:29:13.170Z,0.00
2022-10-18T02:30:13.144Z,0.00
2022-10-18T02:31:13.195Z,0.00
2022-10-18T02:32:14.300Z,0.00
2022-10-18T02:33:13.599Z,0.00
2022-10-18T02:34:13.494Z,0.00
2022-10-18T02:35:13.534Z,0.00
2022-10-18T02:36:13.438Z,0.00
2022-10-18T02:37:18.500Z,0.00
2022-10-18T02:38:13.458Z,0.00
2022-10-18T02:39:13.402Z,0.00
2022-10-18T02:40:13.407Z,0.00
2022-10-18T02:41:13.333Z,0.00
2022-10-18T02:42:13.193Z,0.00
2022-10-18T02:43:12.996Z,0.00
2022-10-18T02:44:13.070Z,0.00
2022-10-18T02:45:13.181Z,0.00
2022-10-18T02:46:13.386Z,0.00
2022-10-18T02:47:13.384Z,0.00
2022-10-18T02:48:13.210Z,0.00
2022-10-18T02:49:13.027Z,0.00
2022-10-18T02:50:13.156Z,0.00
2022-10-18T02:51:13.070Z,0.00
2022-10-18T02:52:12.968Z,0.00
2022-10-18T02:53:12.958Z,0.00
2022-10-18T02:54:13.101Z,0.00
2022-10-18T02:55:13.122Z,0.00
2022-10-18T02:56:13.096Z,0.00
2022-10-18T02:57:13.313Z,0.00
2022-10-18T02:58:13.399Z,0.00
2022-10-18T02:59:13.649Z,0.00
2022-10-18T03:00:13.957Z,0.00
2022-10-18T03:01:13.041Z,0.00
2022-10-18T03:02:13.018Z,0.00
2022-10-18T03:03:13.607Z,0.00
2022-10-18T03:04:13.913Z,0.00
2022-10-18T03:05:12.836Z,0.00
2022-10-18T03:06:13.798Z,0.00
2022-10-18T03:07:13.926Z,0.00
2022-10-18T03:08:12.926Z,0.00
2022-10-18T03:09:13.005Z,0.00
2022-10-18T03:10:12.980Z,0.00
2022-10-18T03:11:12.917Z,0.00
2022-10-18T03:12:12.819Z,0.00
2022-10-18T03:13:13.815Z,0.00
2022-10-18T03:14:13.827Z,0.00
2022-10-18T03:15:25.142Z,0.00
2022-10-18T03:16:13.330Z,0.08
2022-10-18T03:17:13.422Z,0.00
2022-10-18T03:18:13.372Z,0.00
2022-10-18T03:19:16.443Z,0.00
2022-10-18T03:20:13.607Z,0.00
2022-10-18T03:21:24.771Z,0.00
2022-10-18T03:22:13.634Z,0.12
2022-10-18T03:23:13.633Z,0.00
2022-10-18T03:24:13.883Z,0.00
2022-10-18T03:25:14.017Z,0.00
2022-10-18T03:26:13.043Z,0.00
2022-10-18T03:27:13.585Z,0.00
2022-10-18T03:28:23.988Z,0.00
2022-10-18T03:29:13.296Z,0.08
2022-10-18T03:30:13.303Z,0.00
2022-10-18T03:31:13.290Z,0.00
2022-10-18T03:32:13.174Z,0.00
2022-10-18T03:33:13.351Z,0.00
2022-10-18T03:34:13.478Z,0.00
2022-10-18T03:35:13.447Z,0.00
2022-10-18T03:36:13.722Z,0.00
2022-10-18T03:37:13.771Z,0.00
2022-10-18T03:38:18.743Z,0.00
2022-10-18T03:39:14.002Z,0.00
2022-10-18T03:40:13.181Z,0.00
2022-10-18T03:41:13.296Z,0.00
2022-10-18T03:42:13.494Z,0.00
2022-10-18T03:43:13.486Z,0.00
2022-10-18T03:44:13.636Z,0.00
2022-10-18T03:45:13.762Z,0.00
2022-10-18T03:46:13.711Z,0.00
2022-10-18T03:47:13.745Z,0.00
2022-10-18T03:48:13.677Z,0.00
2022-10-18T03:49:13.743Z,0.40
2022-10-18T03:50:13.843Z,0.80
2022-10-18T03:51:14.048Z,0.48
2022-10-18T03:53:13.473Z,0.04
2022-10-18T03:54:13.355Z,0.32
2022-10-18T03:55:29.049Z,0.00
2022-10-18T03:56:14.402Z,1.92
2022-10-18T03:57:13.533Z,1.52
2022-10-18T03:58:13.440Z,1.52
2022-10-18T03:59:13.471Z,1.04
2022-10-18T04:00:13.666Z,0.64
2022-10-18T04:01:13.661Z,1.16
2022-10-18T04:02:13.651Z,0.64
2022-10-18T04:03:13.988Z,0.40
2022-10-18T04:04:13.070Z,0.20
2022-10-18T04:05:13.286Z,0.36
2022-10-18T04:06:13.572Z,0.96
2022-10-18T04:07:13.819Z,1.76
2022-10-18T04:08:14.130Z,0.44
2022-10-18T04:09:13.380Z,0.00
2022-10-18T04:10:13.253Z,0.00
2022-10-18T04:11:13.233Z,0.00
2022-10-18T04:12:13.119Z,0.04
2022-10-18T04:13:13.232Z,0.00
2022-10-18T04:14:13.367Z,0.00
2022-10-18T04:15:13.462Z,0.00
2022-10-18T04:16:13.512Z,0.00
2022-10-18T04:17:13.622Z,0.00
2022-10-18T04:18:13.518Z,0.00
2022-10-18T04:19:13.547Z,0.00
2022-10-18T04:20:13.715Z,0.00
2022-10-18T04:21:13.591Z,0.00
2022-10-18T04:22:13.482Z,0.04
2022-10-18T04:23:13.613Z,0.00
2022-10-18T04:24:13.537Z,0.00
2022-10-18T04:25:13.647Z,0.00
2022-10-18T04:26:14.909Z,0.00
2022-10-18T04:27:24.095Z,0.00
2022-10-18T04:28:12.931Z,0.24
2022-10-18T04:29:13.061Z,0.00
2022-10-18T04:31:15.721Z,0.08
2022-10-18T04:32:14.047Z,0.00
2022-10-18T04:33:12.898Z,0.00
2022-10-18T04:34:13.222Z,0.64
2022-10-18T04:35:13.188Z,0.07
2022-10-18T04:36:13.177Z,0.08
2022-10-18T04:37:23.445Z,1.80
2022-10-18T04:38:13.413Z,1.06
2022-10-18T04:39:23.442Z,0.80
2022-10-18T04:40:13.601Z,1.82
2022-10-18T04:41:18.925Z,1.40
2022-10-18T04:42:13.371Z,0.17
2022-10-18T04:43:13.341Z,1.60
2022-10-18T04:44:13.696Z,1.28
2022-10-18T04:45:14.154Z,2.04
2022-10-18T04:46:13.444Z,2.32
2022-10-18T04:47:14.001Z,2.60
2022-10-18T04:48:12.883Z,1.68
2022-10-18T04:49:13.971Z,1.92
2022-10-18T04:50:12.846Z,3.88
2022-10-18T04:51:14.050Z,0.80
2022-10-18T04:52:12.862Z,0.60
2022-10-18T04:53:19.223Z,0.00
2022-10-18T04:54:13.122Z,0.00
2022-10-18T04:55:12.962Z,0.96
2022-10-18T04:56:12.953Z,3.88
2022-10-18T04:57:13.270Z,2.48
2022-10-18T04:58:13.911Z,2.44
2022-10-18T04:59:13.094Z,2.00
2022-10-18T05:00:13.014Z,1.40
2022-10-18T05:01:13.162Z,0.56
2022-10-18T05:02:13.258Z,0.00
2022-10-18T05:03:13.470Z,0.00
2022-10-18T05:04:13.382Z,0.04
2022-10-18T05:05:14.189Z,0.00
2022-10-18T05:06:13.557Z,0.00
2022-10-18T05:07:13.627Z,0.00
2022-10-18T05:08:13.738Z,0.16
2022-10-18T05:09:13.710Z,0.00
2022-10-18T05:10:13.649Z,0.00
2022-10-18T05:11:14.036Z,0.00
2022-10-18T05:12:13.267Z,0.00
2022-10-18T05:13:14.932Z,0.00
2022-10-18T05:14:12.842Z,0.00
2022-10-18T05:15:13.750Z,0.00
2022-10-18T05:16:13.735Z,0.00
2022-10-18T05:17:18.645Z,0.00
2022-10-18T05:19:13.647Z,0.08
2022-10-18T05:21:13.221Z,0.16
2022-10-18T05:22:13.281Z,0.40
2022-10-18T05:23:13.628Z,0.00
2022-10-18T05:24:13.602Z,0.00
2022-10-18T05:25:13.713Z,0.00
2022-10-18T05:26:14.972Z,0.28
2022-10-18T05:27:13.014Z,0.24
2022-10-18T05:28:34.111Z,0.80
2022-10-18T05:29:14.319Z,0.72
2022-10-18T05:30:21.869Z,0.00
2022-10-18T05:31:13.905Z,0.10
2022-10-18T05:32:13.108Z,0.20
2022-10-18T05:33:13.253Z,0.32
2022-10-18T05:34:13.467Z,0.00
2022-10-18T05:35:13.573Z,0.96
2022-10-18T05:36:13.704Z,0.08
2022-10-18T05:37:14.164Z,0.08
2022-10-18T05:38:13.223Z,0.28
2022-10-18T05:39:13.467Z,0.20
2022-10-18T05:40:13.360Z,0.00
2022-10-18T05:41:13.268Z,0.36
2022-10-18T05:42:13.266Z,1.00
2022-10-18T05:43:13.322Z,0.80
2022-10-18T05:44:13.257Z,0.32
2022-10-18T05:45:13.399Z,0.24
2022-10-18T05:46:15.340Z,0.72
2022-10-18T05:47:13.159Z,1.28
2022-10-18T05:48:44.574Z,1.34
2022-10-18T05:49:20.437Z,0.45
2022-10-18T05:50:13.595Z,0.56
2022-10-18T05:51:13.626Z,1.04
2022-10-18T05:52:13.567Z,1.32
2022-10-18T05:53:35.369Z,1.00
2022-10-18T05:54:13.443Z,0.52
2022-10-18T05:55:13.579Z,0.24
2022-10-18T05:56:13.640Z,1.16
2022-10-18T05:57:13.486Z,0.28
2022-10-18T05:58:13.331Z,0.00
2022-10-18T05:59:13.508Z,0.04
2022-10-18T06:00:13.629Z,0.52
2022-10-18T06:01:13.809Z,0.96
2022-10-18T06:02:14.286Z,1.16
2022-10-18T06:03:13.651Z,1.08
2022-10-18T06:04:14.598Z,1.00
2022-10-18T06:05:13.644Z,1.28
2022-10-18T06:06:13.512Z,1.92
2022-10-18T06:07:13.420Z,0.88
2022-10-18T06:08:13.298Z,2.00
2022-10-18T06:09:13.245Z,2.16
2022-10-18T06:10:13.269Z,1.92
2022-10-18T06:11:13.486Z,0.80
2022-10-18T06:12:13.467Z,2.48
2022-10-18T06:13:13.467Z,1.56
2022-10-18T06:14:13.406Z,1.52
2022-10-18T06:15:13.374Z,1.04
2022-10-18T06:16:13.718Z,1.24
2022-10-18T06:17:13.950Z,0.72
2022-10-18T06:18:12.974Z,1.36
2022-10-18T06:19:13.229Z,0.96
2022-10-18T06:20:13.175Z,3.00
2022-10-18T06:21:13.236Z,1.64
2022-10-18T06:22:13.134Z,0.08
2022-10-18T06:23:13.057Z,0.00
2022-10-18T06:24:12.949Z,0.00
2022-10-18T06:25:12.919Z,1.00
2022-10-18T06:26:12.952Z,2.40
2022-10-18T06:27:12.887Z,1.64
2022-10-18T06:28:13.143Z,0.00
2022-10-18T06:29:13.209Z,0.72
2022-10-18T06:30:13.171Z,1.56
2022-10-18T06:31:14.173Z,0.40
2022-10-18T06:32:13.552Z,0.32
2022-10-18T06:33:13.552Z,0.32
2022-10-18T06:34:13.789Z,1.04
2022-10-18T06:35:13.688Z,0.56
2022-10-18T06:36:13.851Z,0.32
2022-10-18T06:37:13.850Z,2.08
2022-10-18T06:38:13.922Z,3.28
2022-10-18T06:39:12.877Z,2.44
2022-10-18T06:40:13.946Z,2.16
2022-10-18T06:41:12.855Z,1.56
2022-10-18T06:42:14.760Z,0.64
2022-10-18T06:43:21.018Z,1.32
2022-10-18T06:44:13.491Z,1.20
2022-10-18T06:45:13.463Z,1.28
2022-10-18T06:46:13.337Z,0.00
2022-10-18T06:47:13.256Z,0.00
2022-10-18T06:48:13.188Z,0.00
2022-10-18T06:49:15.326Z,0.32
2022-10-18T06:50:13.569Z,0.48
2022-10-18T06:51:13.496Z,0.16
2022-10-18T06:52:14.834Z,0.64
2022-10-18T06:53:13.727Z,0.68
2022-10-18T06:54:17.825Z,1.36
2022-10-18T06:55:13.254Z,0.84
2022-10-18T06:56:13.197Z,1.24
2022-10-18T06:57:13.412Z,0.36
2022-10-18T06:58:13.526Z,0.28
2022-10-18T06:59:13.718Z,0.12
2022-10-18T07:00:13.688Z,0.00
2022-10-18T07:01:14.000Z,0.00
2022-10-18T07:02:13.247Z,1.44
2022-10-18T07:03:18.306Z,1.12
2022-10-18T07:04:13.745Z,1.08
2022-10-18T07:05:13.782Z,1.52
2022-10-18T07:06:13.620Z,1.32
2022-10-18T07:07:13.596Z,0.92
2022-10-18T07:08:13.596Z,0.92
2022-10-18T07:09:13.724Z,0.84
2022-10-18T07:10:13.741Z,0.24
2022-10-18T07:11:13.719Z,1.20
2022-10-18T07:12:14.118Z,0.64
2022-10-18T07:13:31.603Z,0.68
2022-10-18T07:14:16.294Z,0.16
2022-10-18T07:15:13.744Z,0.76
2022-10-18T07:16:17.359Z,0.56
2022-10-18T07:17:13.853Z,0.44
2022-10-18T07:18:13.934Z,0.96
2022-10-18T07:19:12.891Z,0.68
2022-10-18T07:20:12.797Z,0.84
2022-10-18T07:21:13.916Z,0.00
2022-10-18T07:22:13.076Z,0.00
2022-10-18T07:23:13.095Z,0.00
2022-10-18T07:24:13.124Z,0.00
2022-10-18T07:25:13.307Z,0.32
2022-10-18T07:26:13.339Z,0.00
2022-10-18T07:27:13.720Z,0.00
2022-10-18T07:28:14.012Z,0.60
2022-10-18T07:29:13.425Z,0.76
2022-10-18T07:30:13.500Z,0.00
2022-10-18T07:31:13.811Z,0.00
2022-10-18T07:32:13.843Z,0.00
2022-10-18T07:33:14.194Z,0.24
2022-10-18T07:34:13.235Z,0.04
2022-10-18T07:35:13.313Z,0.00
2022-10-18T07:36:13.667Z,0.00
2022-10-18T07:37:14.193Z,0.00
2022-10-18T07:38:13.291Z,0.00
2022-10-18T07:39:13.476Z,0.00
2022-10-18T07:40:13.825Z,0.00
2022-10-18T07:41:14.090Z,0.00
2022-10-18T07:42:13.040Z,0.00
2022-10-18T07:43:13.047Z,0.00
2022-10-18T07:44:13.003Z,0.00
2022-10-18T07:45:13.004Z,0.00
2022-10-18T07:46:13.199Z,0.00
2022-10-18T07:47:13.416Z,0.00
2022-10-18T07:48:13.296Z,0.00
2022-10-18T07:49:13.310Z,0.00
2022-10-18T07:50:13.297Z,0.00
2022-10-18T07:51:13.288Z,0.00
2022-10-18T07:52:13.158Z,0.00
2022-10-18T07:53:13.031Z,0.00
2022-10-18T07:54:13.126Z,0.00
2022-10-18T07:55:13.134Z,0.00
2022-10-18T07:56:13.091Z,0.00
2022-10-18T07:57:13.321Z,0.16
2022-10-18T07:58:13.138Z,0.80
2022-10-18T07:59:13.317Z,0.00
2022-10-18T08:00:13.500Z,0.56
2022-10-18T08:01:13.486Z,0.00
2022-10-18T08:02:35.199Z,0.00
2022-10-18T08:03:13.379Z,0.24
2022-10-18T08:04:16.368Z,0.00
2022-10-18T08:05:13.917Z,0.00
2022-10-18T08:06:13.697Z,0.00
2022-10-18T08:08:13.194Z,0.06
2022-10-18T08:09:13.190Z,0.16
2022-10-18T08:10:13.718Z,0.00
2022-10-18T08:11:14.208Z,0.00
2022-10-18T08:12:13.385Z,0.32
2022-10-18T08:13:13.244Z,0.16
2022-10-18T08:14:13.285Z,1.52
2022-10-18T08:15:13.212Z,0.80
2022-10-18T08:16:13.079Z,0.08
2022-10-18T08:17:13.131Z,0.72
2022-10-18T08:18:13.014Z,3.00
2022-10-18T08:19:12.942Z,2.40
2022-10-18T08:20:29.815Z,3.76
2022-10-18T08:21:13.191Z,2.02
2022-10-18T08:22:13.570Z,2.20
2022-10-18T08:23:13.853Z,1.56
2022-10-18T08:24:13.016Z,0.84
2022-10-18T08:25:18.123Z,1.32
2022-10-18T08:26:13.490Z,2.16
2022-10-18T08:27:13.523Z,1.48
2022-10-18T08:28:13.539Z,2.64
2022-10-18T08:29:22.943Z,1.56
2022-10-18T08:30:13.201Z,0.36
2022-10-18T08:31:13.446Z,0.08
2022-10-18T08:32:13.748Z,0.16
2022-10-18T08:33:13.840Z,0.00
2022-10-18T08:34:18.631Z,0.00
2022-10-18T08:35:13.740Z,0.68
2022-10-18T08:36:13.902Z,0.28
2022-10-18T08:39:12.949Z,0.12
2022-10-18T08:40:12.979Z,0.32
2022-10-18T08:41:13.161Z,0.40
2022-10-18T08:42:13.555Z,1.80
2022-10-18T08:43:16.033Z,0.60
2022-10-18T08:44:13.437Z,0.00
2022-10-18T08:45:30.158Z,2.44
2022-10-18T08:46:13.607Z,1.08
2022-10-18T08:47:13.580Z,2.04
2022-10-18T08:48:13.892Z,1.80
2022-10-18T08:49:13.355Z,2.24
2022-10-18T08:50:13.249Z,1.44
2022-10-18T08:51:13.134Z,0.40
2022-10-18T08:52:13.099Z,1.44
2022-10-18T08:53:13.278Z,0.96
2022-10-18T08:54:13.438Z,1.88
2022-10-18T08:55:13.576Z,1.92
2022-10-18T08:56:13.804Z,2.52
2022-10-18T08:57:14.064Z,2.16
2022-10-18T08:58:13.349Z,0.88
2022-10-18T08:59:13.414Z,1.88
2022-10-18T09:00:13.443Z,2.00
2022-10-18T09:01:13.561Z,1.16
2022-10-18T09:02:13.554Z,1.56
2022-10-18T09:03:13.630Z,3.20
2022-10-18T09:04:13.602Z,0.72
2022-10-18T09:05:13.799Z,0.92
2022-10-18T09:06:21.227Z,2.08
2022-10-18T09:07:13.689Z,0.96
2022-10-18T09:08:13.755Z,2.48
2022-10-18T09:09:13.635Z,3.12
2022-10-18T09:10:13.541Z,3.28
2022-10-18T09:11:13.616Z,2.88
2022-10-18T09:12:13.720Z,0.84
2022-10-18T09:13:14.328Z,1.32
2022-10-18T09:14:13.227Z,1.08
2022-10-18T09:15:13.147Z,1.36
2022-10-18T09:16:13.058Z,2.08
2022-10-18T09:17:15.959Z,3.00
2022-10-18T09:18:13.655Z,0.48
2022-10-18T09:19:13.791Z,2.80
2022-10-18T09:20:13.962Z,3.40
2022-10-18T09:21:13.138Z,2.12
2022-10-18T09:22:13.100Z,2.00
2022-10-18T09:23:18.301Z,4.72
2022-10-18T09:24:13.451Z,0.40
2022-10-18T09:25:13.775Z,0.92
2022-10-18T09:26:17.475Z,0.72
2022-10-18T09:27:13.529Z,3.24
2022-10-18T09:28:13.793Z,1.80
2022-10-18T09:29:13.993Z,1.17
2022-10-18T09:30:13.352Z,0.92
2022-10-18T09:31:13.606Z,2.28
2022-10-18T09:32:13.575Z,0.96
2022-10-18T09:33:13.646Z,1.64
2022-10-18T09:34:19.238Z,0.28
2022-10-18T09:35:13.245Z,1.16
2022-10-18T09:36:13.287Z,2.06
2022-10-18T09:37:13.388Z,3.53
2022-10-18T09:38:13.815Z,1.04
2022-10-18T09:39:14.224Z,0.24
2022-10-18T09:40:16.571Z,2.12
2022-10-18T09:41:13.401Z,1.80
2022-10-18T09:42:13.778Z,2.00
2022-10-18T09:43:14.297Z,0.52
2022-10-18T09:44:13.486Z,0.48
2022-10-18T09:45:13.500Z,0.24
2022-10-18T09:46:13.586Z,1.60
2022-10-18T09:47:16.902Z,1.76
2022-10-18T09:48:13.053Z,1.28
2022-10-18T09:49:15.693Z,3.52
2022-10-18T09:50:13.578Z,0.44
2022-10-18T09:51:13.468Z,3.52
2022-10-18T09:52:13.707Z,4.80
2022-10-18T09:53:13.930Z,3.84
2022-10-18T09:54:13.297Z,3.92
2022-10-18T09:55:13.216Z,3.92
2022-10-18T09:56:13.106Z,1.08
2022-10-18T09:57:13.096Z,0.60
2022-10-18T09:58:12.976Z,2.56
2022-10-18T09:59:12.889Z,0.88
2022-10-18T10:00:13.808Z,3.68
2022-10-18T10:01:14.172Z,4.80
2022-10-18T10:02:13.273Z,7.48
2022-10-18T10:03:13.411Z,2.08
2022-10-18T10:04:13.465Z,5.24
2022-10-18T10:05:13.451Z,2.88
2022-10-18T10:06:13.307Z,3.16
2022-10-18T10:07:13.277Z,0.92
2022-10-18T10:08:13.322Z,0.16
2022-10-18T10:09:13.408Z,0.28
2022-10-18T10:10:13.403Z,2.56
2022-10-18T10:11:13.360Z,4.52
2022-10-18T10:12:13.395Z,5.80
2022-10-18T10:13:13.413Z,8.00
2022-10-18T10:14:13.694Z,5.24
2022-10-18T10:15:18.839Z,0.42
2022-10-18T10:16:13.987Z,3.44
2022-10-18T10:17:13.394Z,6.64
2022-10-18T10:18:23.556Z,4.68
2022-10-18T10:19:13.484Z,6.00
2022-10-18T10:20:23.891Z,3.40
2022-10-18T10:21:12.855Z,4.24
2022-10-18T10:22:13.805Z,2.40
2022-10-18T10:24:25.019Z,3.96
2022-10-18T10:26:14.325Z,8.24
2022-10-18T10:27:13.475Z,9.40
2022-10-18T10:28:13.507Z,11.68
2022-10-18T10:29:17.477Z,13.24
2022-10-18T10:30:13.779Z,10.04
2022-10-18T10:31:13.850Z,6.76
2022-10-18T10:32:29.401Z,1.86
2022-10-18T10:33:13.346Z,1.44
2022-10-18T10:34:13.525Z,5.84
2022-10-18T10:35:22.749Z,0.56
2022-10-18T10:36:20.147Z,2.40
2022-10-18T10:37:13.466Z,3.48
2022-10-18T10:38:13.629Z,0.88
2022-10-18T10:39:14.125Z,1.20
2022-10-18T10:40:45.703Z,0.72
2022-10-18T10:41:14.050Z,0.12
2022-10-18T10:42:13.162Z,0.00
2022-10-18T10:43:33.134Z,0.00
2022-10-18T10:44:18.907Z,0.08
2022-10-18T10:45:12.892Z,0.48
2022-10-18T10:46:13.057Z,2.04
2022-10-18T10:47:13.107Z,9.08
2022-10-18T10:48:18.425Z,1.96
2022-10-18T10:49:38.383Z,2.08
2022-10-18T10:50:13.185Z,9.24
2022-10-18T10:51:13.242Z,4.24
2022-10-18T10:52:26.231Z,6.08
2022-10-18T10:53:13.393Z,3.88
2022-10-18T10:54:13.725Z,2.36
2022-10-18T10:55:34.077Z,0.32
2022-10-18T10:56:16.022Z,2.36
2022-10-18T10:57:13.591Z,5.08
2022-10-18T10:58:18.893Z,12.00
2022-10-18T11:00:13.589Z,8.48
2022-10-18T11:01:13.625Z,5.88
2022-10-18T11:02:13.982Z,1.52
2022-10-18T11:03:29.214Z,2.76
2022-10-18T11:04:13.590Z,2.48
2022-10-18T11:05:13.612Z,5.84
2022-10-18T11:06:13.648Z,8.04
2022-10-18T11:07:13.889Z,12.24
2022-10-18T11:08:12.778Z,12.44
2022-10-18T11:09:18.615Z,10.12
2022-10-18T11:10:13.541Z,8.04
2022-10-18T11:11:16.920Z,8.48
2022-10-18T11:12:13.326Z,7.16
2022-10-18T11:13:13.853Z,8.60
2022-10-18T11:14:25.360Z,7.88
2022-10-18T11:15:14.176Z,10.20
2022-10-18T11:17:13.141Z,8.52
2022-10-18T11:18:13.069Z,5.70
2022-10-18T11:19:14.008Z,10.64
2022-10-18T11:20:13.120Z,12.28
2022-10-18T11:21:13.481Z,15.04
2022-10-18T11:22:13.560Z,10.36
2022-10-18T11:23:14.721Z,5.84
2022-10-18T11:24:13.750Z,3.72
2022-10-18T11:25:14.096Z,9.53
2022-10-18T11:26:13.279Z,7.40
2022-10-18T11:27:13.913Z,6.64
2022-10-18T11:28:13.179Z,11.04
2022-10-18T11:29:30.516Z,6.24
2022-10-18T11:30:27.054Z,6.32
2022-10-18T11:31:13.498Z,7.89
2022-10-18T11:34:13.714Z,3.98
2022-10-18T11:35:13.928Z,7.28
2022-10-18T11:36:13.285Z,5.36
2022-10-18T11:37:28.198Z,8.04
2022-10-18T11:38:13.482Z,7.32
2022-10-18T11:39:13.789Z,0.84
2022-10-18T11:40:14.120Z,6.48
2022-10-18T11:41:13.658Z,9.72
2022-10-18T11:42:13.549Z,8.04
2022-10-18T11:43:13.625Z,10.88
2022-10-18T11:44:14.028Z,5.68
2022-10-18T11:45:13.016Z,5.80
2022-10-18T11:46:13.413Z,0.84
2022-10-18T11:47:13.497Z,5.88
2022-10-18T11:48:14.221Z,4.96
2022-10-18T11:49:13.197Z,4.16
2022-10-18T11:50:13.359Z,7.32
2022-10-18T11:51:13.550Z,5.96
2022-10-18T11:52:13.968Z,5.60
2022-10-18T11:53:12.895Z,4.00
2022-10-18T11:54:13.150Z,5.64
2022-10-18T11:55:13.494Z,6.48
2022-10-18T11:56:14.091Z,5.68
2022-10-18T11:57:13.827Z,2.00
2022-10-18T11:58:12.893Z,5.28
2022-10-18T11:59:12.828Z,6.28
2022-10-18T12:00:13.809Z,2.60
2022-10-18T12:01:13.827Z,7.60
2022-10-18T12:02:13.791Z,5.88
2022-10-18T12:03:13.710Z,7.12
2022-10-18T12:04:13.819Z,3.48
2022-10-18T12:05:24.872Z,2.40
2022-10-18T12:06:13.179Z,5.04
2022-10-18T12:07:13.266Z,7.48
2022-10-18T12:08:13.459Z,5.04
2022-10-18T12:09:13.983Z,7.84
2022-10-18T12:10:13.150Z,6.96
2022-10-18T12:11:13.527Z,6.12
2022-10-18T12:12:14.310Z,3.92
2022-10-18T12:13:13.553Z,2.40
2022-10-18T12:14:13.809Z,5.52
2022-10-18T12:15:14.044Z,6.12
2022-10-18T12:17:40.673Z,11.40
2022-10-18T12:18:13.697Z,7.96
2022-10-18T12:19:13.559Z,8.24
2022-10-18T12:20:13.651Z,12.08
2022-10-18T12:21:13.921Z,7.28
2022-10-18T12:22:13.084Z,3.04
2022-10-18T12:23:13.296Z,5.00
2022-10-18T12:24:13.824Z,9.64
2022-10-18T12:25:13.124Z,11.76
2022-10-18T12:26:13.264Z,22.64
2022-10-18T12:27:13.464Z,16.88
2022-10-18T12:28:13.408Z,9.08
2022-10-18T12:29:13.686Z,13.72
2022-10-18T12:30:14.236Z,8.64
2022-10-18T12:31:13.473Z,5.32
2022-10-18T12:32:13.574Z,11.20
2022-10-18T12:33:27.653Z,10.68
2022-10-18T12:34:13.534Z,11.00
2022-10-18T12:35:13.619Z,15.64
2022-10-18T12:36:13.663Z,9.12
2022-10-18T12:37:13.547Z,11.52
2022-10-18T12:38:13.713Z,12.08
2022-10-18T12:39:14.058Z,10.84
2022-10-18T12:40:15.706Z,17.76
2022-10-18T12:41:13.576Z,16.84
2022-10-18T12:42:13.427Z,17.60
2022-10-18T12:43:13.970Z,12.16
2022-10-18T12:44:12.926Z,12.56
2022-10-18T12:45:12.918Z,13.56
2022-10-18T12:46:13.964Z,7.72
2022-10-18T12:47:13.323Z,7.96
2022-10-18T12:48:13.427Z,8.76
2022-10-18T12:49:13.462Z,10.52
2022-10-18T12:50:13.670Z,18.32
2022-10-18T12:51:13.671Z,17.92
2022-10-18T12:52:13.880Z,6.52
2022-10-18T12:53:13.043Z,4.64
2022-10-18T12:54:12.969Z,8.88
2022-10-18T12:55:17.028Z,9.92
2022-10-18T12:56:13.954Z,5.96
2022-10-18T12:57:13.281Z,8.28
2022-10-18T12:58:13.215Z,12.88
2022-10-18T12:59:13.125Z,10.72
2022-10-18T13:00:14.339Z,14.44
2022-10-18T13:01:13.612Z,7.88
2022-10-18T13:02:13.774Z,12.16
2022-10-18T13:03:14.087Z,10.12
2022-10-18T13:04:13.295Z,12.04
2022-10-18T13:05:22.329Z,13.12
2022-10-18T13:06:14.054Z,7.56
2022-10-18T13:07:13.680Z,10.52
2022-10-18T13:08:14.054Z,15.96
2022-10-18T13:09:13.459Z,6.68
2022-10-18T13:10:13.725Z,11.80
2022-10-18T13:11:14.142Z,16.36
2022-10-18T13:12:13.081Z,8.40
2022-10-18T13:13:35.991Z,8.16
2022-10-18T13:14:13.495Z,4.04
2022-10-18T13:15:25.673Z,4.00
2022-10-18T13:16:13.087Z,9.68
2022-10-18T13:17:13.637Z,13.68
2022-10-18T13:18:14.043Z,7.44
2022-10-18T13:19:13.197Z,12.60
2022-10-18T13:20:25.415Z,17.80
2022-10-18T13:21:13.424Z,7.48
2022-10-18T13:22:13.792Z,9.84
2022-10-18T13:23:13.777Z,9.44
2022-10-18T13:24:13.860Z,13.32
2022-10-18T13:25:13.908Z,8.36
2022-10-18T13:26:13.039Z,5.40
2022-10-18T13:27:31.428Z,13.44
2022-10-18T13:28:13.568Z,12.88
2022-10-18T13:29:13.979Z,15.92
2022-10-18T13:30:13.423Z,12.48
2022-10-18T13:31:13.460Z,8.64